createdAt,value
2019-05-12T00:02:07.664Z,101953.00
2019-05-12T00:07:12.409Z,101969.00
2019-05-12T00:12:18.403Z,101966.00
2019-05-12T00:17:23.103Z,101981.00
2019-05-12T00:22:29.151Z,101963.00
2019-05-12T00:27:33.562Z,101964.00
2019-05-12T00:32:38.558Z,101991.00
2019-05-12T00:37:43.224Z,101985.00
2019-05-12T00:42:48.511Z,101983.00
2019-05-12T00:47:53.041Z,101998.00
2019-05-12T00:52:58.184Z,102000.00
2019-05-12T00:58:02.818Z,102011.00
2019-05-12T01:03:08.690Z,102027.00
2019-05-12T01:08:13.545Z,102031.00
2019-05-12T01:13:18.746Z,102030.00
2019-05-12T01:18:23.292Z,102020.00
2019-05-12T01:23:28.237Z,102035.00
2019-05-12T01:28:32.993Z,102040.00
2019-05-12T01:33:38.081Z,102036.00
2019-05-12T01:38:42.673Z,102034.00
2019-05-12T01:43:48.769Z,102044.00
2019-05-12T01:48:53.225Z,102051.00
2019-05-12T01:54:10.547Z,102068.00
2019-05-12T01:59:05.215Z,102067.00
2019-05-12T02:04:09.597Z,102089.00
2019-05-12T02:09:15.659Z,102096.00
2019-05-12T02:14:20.064Z,102095.00
2019-05-12T02:19:24.485Z,102105.00
2019-05-12T02:24:30.560Z,102122.00
2019-05-12T02:29:35.302Z,102136.00
2019-05-12T02:34:39.733Z,102133.00
2019-05-12T02:39:44.909Z,102149.00
2019-05-12T02:44:49.674Z,102148.00
2019-05-12T02:49:54.529Z,102153.00
2019-05-12T02:55:00.856Z,102163.00
2019-05-12T03:00:07.868Z,102169.00
2019-05-12T03:05:14.835Z,102165.00
2019-05-12T03:10:18.994Z,102184.00
2019-05-12T03:15:25.039Z,102178.00
2019-05-12T03:20:29.581Z,102181.00
2019-05-12T03:25:35.787Z,102195.00
2019-05-12T03:30:41.243Z,102180.00
2019-05-12T03:35:52.240Z,102203.00
2019-05-12T03:40:54.938Z,102196.00
2019-05-12T03:45:57.994Z,102206.00
2019-05-12T03:51:05.447Z,102211.00
2019-05-12T03:56:08.755Z,102221.00
2019-05-12T04:01:14.975Z,102220.00
2019-05-12T04:06:19.368Z,102226.00
2019-05-12T04:11:25.004Z,102222.00
2019-05-12T04:16:29.545Z,102241.00
2019-05-12T04:21:35.062Z,102246.00
2019-05-12T04:26:40.033Z,102255.00
2019-05-12T04:31:44.450Z,102271.00
2019-05-12T04:36:48.848Z,102261.00
2019-05-12T04:41:55.135Z,102277.00
2019-05-12T04:46:59.378Z,102278.00
2019-05-12T04:52:05.238Z,102290.00
2019-05-12T04:57:09.959Z,102284.00
2019-05-12T05:02:15.328Z,102289.00
2019-05-12T05:07:19.974Z,102293.00
2019-05-12T05:12:24.383Z,102308.00
2019-05-12T05:17:28.791Z,102306.00
2019-05-12T05:22:33.460Z,102307.00
2019-05-12T05:27:37.937Z,102321.00
2019-05-12T05:32:44.458Z,102324.00
2019-05-12T05:37:48.547Z,102336.00
2019-05-12T05:42:54.280Z,102332.00
2019-05-12T05:47:59.603Z,102337.00
2019-05-12T05:53:09.174Z,102348.00
2019-05-12T05:58:11.145Z,102368.00
2019-05-12T06:03:23.419Z,102365.00
2019-05-12T06:08:23.783Z,102368.00
2019-05-12T06:13:31.796Z,102377.00
2019-05-12T06:18:34.172Z,102376.00
2019-05-12T06:23:39.252Z,102395.00
2019-05-12T06:28:44.148Z,102390.00
2019-05-12T06:33:48.606Z,102403.00
2019-05-12T06:38:54.129Z,102397.00
2019-05-12T06:43:58.762Z,102416.00
2019-05-12T06:49:10.176Z,102420.00
2019-05-12T06:54:12.002Z,102433.00
2019-05-12T06:59:15.629Z,102420.00
2019-05-12T07:04:21.936Z,102428.00
2019-05-12T07:09:28.776Z,102435.00
2019-05-12T07:14:34.546Z,102436.00
2019-05-12T07:19:38.882Z,102457.00
2019-05-12T07:24:49.950Z,102461.00
2019-05-12T07:29:49.447Z,102451.00
2019-05-12T07:34:54.855Z,102445.00
2019-05-12T07:39:59.799Z,102458.00
2019-05-12T07:45:11.518Z,102463.00
2019-05-12T07:50:18.333Z,102468.00
2019-05-12T07:55:19.054Z,102460.00
2019-05-12T08:00:25.700Z,102473.00
2019-05-12T08:05:29.716Z,102457.00
2019-05-12T08:10:34.556Z,102474.00
2019-05-12T08:15:39.830Z,102476.00
2019-05-12T08:20:44.413Z,102480.00
2019-05-12T08:25:48.834Z,102487.00
2019-05-12T08:30:54.856Z,102493.00
2019-05-12T08:36:03.173Z,102481.00
2019-05-12T08:41:05.674Z,102487.00
2019-05-12T08:46:12.915Z,102492.00
2019-05-12T08:51:19.473Z,102489.00
2019-05-12T08:56:24.005Z,102508.00
2019-05-12T09:01:30.897Z,102511.00
2019-05-12T09:06:35.968Z,102502.00
2019-05-12T09:11:40.530Z,102509.00
2019-05-12T09:16:44.941Z,102521.00
2019-05-12T09:21:49.353Z,102522.00
2019-05-12T09:26:53.988Z,102537.00
2019-05-12T09:31:59.374Z,102523.00
2019-05-12T09:37:04.725Z,102537.00
2019-05-12T09:42:09.139Z,102540.00
2019-05-12T09:47:23.105Z,102537.00
2019-05-12T09:52:27.002Z,102546.00
2019-05-12T09:57:26.041Z,102544.00
2019-05-12T10:02:30.427Z,102550.00
2019-05-12T10:07:34.859Z,102547.00
2019-05-12T10:12:48.588Z,102539.00
2019-05-12T10:17:45.562Z,102548.00
2019-05-12T10:22:49.995Z,102561.00
2019-05-12T10:27:54.532Z,102561.00
2019-05-12T10:32:59.202Z,102571.00
2019-05-12T10:38:08.595Z,102566.00
2019-05-12T10:43:09.904Z,102553.00
2019-05-12T10:48:14.454Z,102577.00
2019-05-12T10:53:18.853Z,102564.00
2019-05-12T10:58:24.841Z,102559.00
2019-05-12T11:03:29.646Z,102593.00
2019-05-12T11:08:34.065Z,102588.00
2019-05-12T11:13:40.258Z,102582.00
2019-05-12T11:18:44.782Z,102585.00
2019-05-12T11:23:49.203Z,102586.00
2019-05-12T11:28:53.680Z,102592.00
2019-05-12T11:33:58.212Z,102615.00
2019-05-12T11:39:03.686Z,102606.00
2019-05-12T11:44:08.391Z,102612.00
2019-05-12T11:49:13.800Z,102612.00
2019-05-12T11:54:18.492Z,102621.00
2019-05-12T11:59:23.741Z,102616.00
2019-05-12T12:04:30.033Z,102623.00
2019-05-12T12:09:34.451Z,102625.00
2019-05-12T12:14:40.256Z,102624.00
2019-05-12T12:19:46.937Z,102633.00
2019-05-12T12:24:54.304Z,102644.00
2019-05-12T12:30:12.101Z,102655.00
2019-05-12T12:35:10.985Z,102656.00
2019-05-12T12:40:14.400Z,102675.00
2019-05-12T12:45:23.576Z,102663.00
2019-05-12T12:50:30.564Z,102673.00
2019-05-12T12:55:38.150Z,102692.00
2019-05-12T13:00:47.290Z,102668.00
2019-05-12T13:05:46.240Z,102675.00
2019-05-12T13:10:51.932Z,102677.00
2019-05-12T13:15:56.881Z,102692.00
2019-05-12T13:21:03.407Z,102692.00
2019-05-12T13:26:07.710Z,102695.00
2019-05-12T13:31:15.736Z,102692.00
2019-05-12T13:36:18.464Z,102702.00
2019-05-12T13:41:22.906Z,102700.00
2019-05-12T13:46:27.478Z,102713.00
2019-05-12T13:51:48.291Z,102703.00
2019-05-12T13:56:53.499Z,102717.00
2019-05-12T14:01:58.087Z,102715.00
2019-05-12T14:07:03.883Z,102732.00
2019-05-12T14:12:08.537Z,102732.00
2019-05-12T14:17:14.816Z,102732.00
2019-05-12T14:22:21.467Z,102734.00
2019-05-12T14:27:28.741Z,102742.00
2019-05-12T14:32:33.626Z,102752.00
2019-05-12T14:37:40.204Z,102760.00
2019-05-12T14:42:44.435Z,102759.00
2019-05-12T14:47:49.017Z,102751.00
2019-05-12T14:52:57.792Z,102752.00
2019-05-12T14:58:00.341Z,102761.00
2019-05-12T15:03:12.389Z,102752.00
2019-05-12T15:08:13.554Z,102751.00
2019-05-12T15:13:17.525Z,102771.00
2019-05-12T15:18:21.913Z,102769.00
2019-05-12T15:23:32.314Z,102778.00
2019-05-12T15:28:33.806Z,102772.00
2019-05-12T15:33:38.518Z,102768.00
2019-05-12T15:38:43.718Z,102786.00
2019-05-12T15:43:49.177Z,102788.00
2019-05-12T15:48:53.893Z,102798.00
2019-05-12T15:54:06.365Z,102801.00
2019-05-12T15:59:05.845Z,102814.00
2019-05-12T16:04:12.052Z,102813.00
2019-05-12T16:09:17.169Z,102821.00
2019-05-12T16:14:23.374Z,102841.00
2019-05-12T16:19:27.882Z,102848.00
2019-05-12T16:24:34.067Z,102843.00
2019-05-12T16:29:43.801Z,102849.00
2019-05-12T16:34:48.778Z,102855.00
2019-05-12T16:39:51.137Z,102850.00
2019-05-12T16:45:05.327Z,102860.00
2019-05-12T16:50:06.237Z,102862.00
2019-05-12T16:55:08.547Z,102859.00
2019-05-12T17:00:14.114Z,102875.00
2019-05-12T17:05:20.532Z,102881.00
2019-05-12T17:10:27.093Z,102885.00
2019-05-12T17:15:33.803Z,102897.00
2019-05-12T17:20:41.020Z,102911.00
2019-05-12T17:25:44.619Z,102913.00
2019-05-12T17:30:49.103Z,102910.00
2019-05-12T17:35:53.697Z,102922.00
2019-05-12T17:41:00.762Z,102917.00
2019-05-12T17:46:04.704Z,102929.00
2019-05-12T17:51:09.256Z,102936.00
2019-05-12T17:56:14.039Z,102955.00
2019-05-12T18:01:23.084Z,102951.00
2019-05-12T18:06:26.836Z,102962.00
2019-05-12T18:11:31.065Z,102961.00
2019-05-12T18:16:35.900Z,102969.00
2019-05-12T18:21:40.394Z,102980.00
2019-05-12T18:26:47.150Z,102977.00
2019-05-12T18:31:53.437Z,102973.00
2019-05-12T18:36:59.706Z,102975.00
2019-05-12T18:42:06.128Z,102983.00
2019-05-12T18:47:14.369Z,102985.00
2019-05-12T18:52:16.874Z,102999.00
2019-05-12T18:57:23.699Z,103010.00
2019-05-12T19:02:28.592Z,103009.00
2019-05-12T19:07:39.844Z,103009.00
2019-05-12T19:12:40.432Z,103011.00
2019-05-12T19:17:46.026Z,103021.00
2019-05-12T19:22:57.323Z,103028.00
2019-05-12T19:28:05.986Z,103034.00
2019-05-12T19:33:06.521Z,103039.00
2019-05-12T19:38:09.215Z,103040.00
2019-05-12T19:43:14.291Z,103051.00
2019-05-12T19:48:24.811Z,103057.00
2019-05-12T19:53:24.853Z,103048.00
2019-05-12T19:58:29.553Z,103057.00
2019-05-12T20:03:34.696Z,103052.00
2019-05-12T20:08:39.250Z,103057.00
2019-05-12T20:13:44.488Z,103056.00
2019-05-12T20:18:49.353Z,103067.00
2019-05-12T20:23:54.492Z,103071.00
2019-05-12T20:28:59.064Z,103069.00
2019-05-12T20:34:06.206Z,103082.00
2019-05-12T20:39:15.833Z,103086.00
2019-05-12T20:44:19.614Z,103092.00
2019-05-12T20:49:24.148Z,103093.00
2019-05-12T20:54:28.510Z,103095.00
2019-05-12T20:59:33.841Z,103118.00
2019-05-12T21:04:38.622Z,103119.00
2019-05-12T21:09:44.133Z,103109.00
2019-05-12T21:14:51.643Z,103115.00
2019-05-12T21:19:59.181Z,103112.00
2019-05-12T21:25:04.006Z,103113.00
2019-05-12T21:30:11.735Z,103124.00
2019-05-12T21:35:22.013Z,103125.00
2019-05-12T21:40:29.831Z,103139.00
2019-05-12T21:45:30.822Z,103140.00
2019-05-12T21:50:38.227Z,103141.00
2019-05-12T21:55:40.438Z,103140.00
2019-05-12T22:00:50.532Z,103155.00
2019-05-12T22:05:56.422Z,103170.00
2019-05-12T22:11:09.502Z,103171.00
2019-05-12T22:16:07.564Z,103166.00
2019-05-12T22:21:13.640Z,103165.00
2019-05-12T22:26:18.447Z,103182.00
2019-05-12T22:31:24.253Z,103188.00
2019-05-12T22:36:30.230Z,103177.00
2019-05-12T22:41:36.890Z,103190.00
2019-05-12T22:46:40.966Z,103194.00
2019-05-12T22:51:46.638Z,103194.00
2019-05-12T22:56:55.189Z,103205.00
2019-05-12T23:01:57.730Z,103199.00
2019-05-12T23:07:04.546Z,103202.00
2019-05-12T23:12:09.722Z,103209.00
2019-05-12T23:17:15.333Z,103194.00
2019-05-12T23:22:19.888Z,103214.00
2019-05-12T23:27:29.757Z,103209.00
2019-05-12T23:32:30.639Z,103204.00
2019-05-12T23:37:38.384Z,103206.00
2019-05-12T23:42:41.335Z,103200.00
2019-05-12T23:47:45.831Z,103201.00
2019-05-12T23:52:50.269Z,103197.00
2019-05-12T23:57:54.722Z,103204.00
